createdAt,value
2022-07-25T08:29:58.671Z,29.28
2022-07-25T08:32:25.314Z,29.99
2022-07-25T08:34:52.136Z,29.38
2022-07-25T08:37:18.802Z,28.71
2022-07-25T08:39:45.509Z,29.01
2022-07-25T08:42:12.169Z,28.68
2022-07-25T08:44:41.322Z,29.20
2022-07-25T08:47:09.615Z,27.97
2022-07-25T08:49:38.094Z,28.08
2022-07-25T08:52:05.263Z,27.77
2022-07-25T08:54:31.952Z,27.30
2022-07-25T08:56:58.603Z,28.22
2022-07-25T08:59:25.240Z,27.91
2022-07-25T09:01:52.283Z,27.69
2022-07-25T09:04:19.496Z,27.27
2022-07-25T09:06:50.535Z,27.21
2022-07-25T09:09:17.746Z,26.41
2022-07-25T09:11:44.389Z,26.91
2022-07-25T09:14:14.902Z,26.38
2022-07-25T09:16:44.848Z,26.82
2022-07-25T09:19:17.196Z,26.92
2022-07-25T09:21:46.024Z,26.84
2022-07-25T09:24:16.046Z,27.23
2022-07-25T09:26:48.213Z,25.44
2022-07-25T09:29:25.791Z,25.20
2022-07-25T09:31:53.862Z,25.14
2022-07-25T09:34:36.501Z,24.99
2022-07-25T09:37:08.354Z,24.99
2022-07-25T09:39:47.307Z,24.92
2022-07-25T09:42:36.250Z,24.95
2022-07-25T09:45:15.312Z,25.37
2022-07-25T09:47:57.448Z,25.05
2022-07-25T09:50:26.157Z,25.52
2022-07-25T09:52:54.873Z,24.83
2022-07-25T09:55:22.050Z,24.45
2022-07-25T09:57:52.509Z,24.45
2022-07-25T10:00:24.596Z,23.48
2022-07-25T10:02:55.013Z,24.12
2022-07-25T10:05:47.092Z,24.22
2022-07-25T10:08:14.545Z,24.65
2022-07-25T10:10:42.136Z,24.72
2022-07-25T10:13:11.510Z,25.16
2022-07-25T10:15:46.396Z,24.08
2022-07-25T10:18:14.393Z,24.53
2022-07-25T10:20:41.704Z,24.06
2022-07-25T10:23:19.468Z,24.72
2022-07-25T10:25:49.174Z,24.67
2022-07-25T10:28:19.107Z,24.76
2022-07-25T10:30:46.160Z,24.58
2022-07-25T10:33:19.198Z,25.40
2022-07-25T10:35:46.182Z,25.07
2022-07-25T10:38:13.154Z,25.85
2022-07-25T10:40:45.045Z,25.32
2022-07-25T10:43:19.077Z,23.78
2022-07-25T10:45:58.562Z,24.17
2022-07-25T10:48:25.242Z,23.99
2022-07-25T10:51:18.444Z,24.50
2022-07-25T10:53:44.990Z,24.79
2022-07-25T10:56:25.013Z,24.72
2022-07-25T10:58:54.075Z,25.55
2022-07-25T11:01:23.338Z,25.63
2022-07-25T11:03:52.547Z,25.15
2022-07-25T11:06:39.706Z,25.29
2022-07-25T11:09:22.682Z,24.60
2022-07-25T11:11:57.823Z,24.29
2022-07-25T11:14:35.236Z,25.04
2022-07-25T11:17:19.775Z,24.45
2022-07-25T11:20:06.197Z,24.86
2022-07-25T11:22:33.356Z,24.75
2022-07-25T11:25:00.988Z,25.32
2022-07-25T11:27:30.569Z,24.85
2022-07-25T11:30:20.748Z,25.18
2022-07-25T11:32:59.293Z,25.78
2022-07-25T11:35:31.834Z,24.78
2022-07-25T11:37:59.944Z,25.53
2022-07-25T11:40:26.565Z,25.63
2022-07-25T11:42:59.346Z,25.53
2022-07-25T11:45:30.063Z,24.61
2022-07-25T11:48:10.805Z,24.76
2022-07-25T11:50:38.996Z,25.60
2022-07-25T11:53:07.384Z,24.91
2022-07-25T11:55:42.844Z,25.37
2022-07-25T11:58:10.931Z,25.35
2022-07-25T12:00:45.521Z,24.59
2022-07-25T12:03:18.983Z,23.95
2022-07-25T12:05:47.289Z,23.86
2022-07-25T12:08:19.347Z,24.08
2022-07-25T12:10:47.725Z,23.30
2022-07-25T12:13:28.710Z,24.64
2022-07-25T12:15:59.589Z,23.09
2022-07-25T12:18:26.564Z,22.70
2022-07-25T12:20:53.426Z,23.43
2022-07-25T12:23:21.738Z,24.30
2022-07-25T12:25:48.580Z,24.15
2022-07-25T12:28:15.328Z,23.84
2022-07-25T12:30:43.599Z,24.15
2022-07-25T12:33:11.255Z,24.56
2022-07-25T12:35:39.967Z,24.17
2022-07-25T12:38:07.006Z,24.49
2022-07-25T12:40:33.846Z,24.15
2022-07-25T12:43:01.086Z,23.77
2022-07-25T12:45:28.044Z,24.55
2022-07-25T12:47:55.022Z,24.62
2022-07-25T12:50:21.728Z,24.39
2022-07-25T12:52:48.456Z,24.58
2022-07-25T12:55:18.379Z,25.16
2022-07-25T12:57:46.217Z,24.73
2022-07-25T13:00:15.629Z,24.65
2022-07-25T13:02:46.505Z,24.71
2022-07-25T13:05:15.208Z,25.20
2022-07-25T13:07:42.781Z,25.23
2022-07-25T13:10:10.274Z,25.17
2022-07-25T13:12:36.930Z,26.07
2022-07-25T13:15:04.181Z,25.72
2022-07-25T13:17:32.085Z,25.77
2022-07-25T13:19:59.124Z,25.09
2022-07-25T13:22:25.824Z,24.70
2022-07-25T13:25:03.793Z,24.26
2022-07-25T13:27:33.448Z,24.49
2022-07-25T13:30:00.206Z,24.27
2022-07-25T13:32:28.434Z,24.67
2022-07-25T13:34:55.600Z,24.49
2022-07-25T13:37:22.295Z,24.99
2022-07-25T13:39:49.288Z,24.76
2022-07-25T13:42:15.990Z,25.19
2022-07-25T13:44:42.780Z,24.63
2022-07-25T13:47:09.415Z,24.39
2022-07-25T13:49:37.121Z,24.41
2022-07-25T13:52:07.095Z,24.40
2022-07-25T13:54:33.826Z,24.46
2022-07-25T13:57:03.038Z,23.78
2022-07-25T13:59:30.175Z,24.03
2022-07-25T14:01:57.088Z,24.31
2022-07-25T14:04:23.979Z,24.30
2022-07-25T14:06:52.283Z,24.48
2022-07-25T14:09:23.338Z,23.66
2022-07-25T14:11:50.072Z,24.38
2022-07-25T14:14:17.400Z,25.09
2022-07-25T14:16:44.362Z,24.82
2022-07-25T14:19:11.205Z,24.89
2022-07-25T14:21:38.033Z,25.17
2022-07-25T14:24:05.469Z,24.51
2022-07-25T14:26:33.975Z,24.60
2022-07-25T14:29:00.713Z,24.71
2022-07-25T14:31:27.725Z,24.48
2022-07-25T14:33:54.584Z,24.82
2022-07-25T14:36:21.352Z,25.14
2022-07-25T14:38:48.427Z,25.54
2022-07-25T14:41:15.503Z,25.34
2022-07-25T14:43:42.455Z,25.38
2022-07-25T14:46:09.929Z,25.83
2022-07-25T14:48:37.734Z,25.56
2022-07-25T14:51:05.581Z,25.82
2022-07-25T14:53:32.593Z,26.12
2022-07-25T14:56:00.842Z,26.80
2022-07-25T14:58:27.582Z,26.00
2022-07-25T15:00:54.335Z,26.40
2022-07-25T15:03:21.214Z,26.04
2022-07-25T15:05:47.991Z,26.72
2022-07-25T15:08:14.654Z,26.38
2022-07-25T15:10:41.472Z,26.56
2022-07-25T15:13:29.857Z,25.86
2022-07-25T15:15:56.220Z,25.58
2022-07-25T15:18:22.991Z,24.71
2022-07-25T15:20:51.807Z,25.12
2022-07-25T15:23:18.762Z,24.10
2022-07-25T15:26:03.955Z,24.32
2022-07-25T15:28:32.925Z,24.36
2022-07-25T15:30:59.654Z,24.96
2022-07-25T15:33:26.608Z,25.44
2022-07-25T15:35:53.405Z,24.71
2022-07-25T15:38:20.044Z,24.46
2022-07-25T15:40:47.130Z,24.61
2022-07-25T15:43:13.963Z,24.76
2022-07-25T15:45:42.486Z,25.57
2022-07-25T15:48:12.193Z,25.62
2022-07-25T15:50:42.991Z,25.58
2022-07-25T15:53:10.568Z,26.36
2022-07-25T15:55:38.404Z,26.01
2022-07-25T15:58:06.067Z,26.57
2022-07-25T16:00:33.758Z,26.66
2022-07-25T16:03:00.616Z,26.78
2022-07-25T16:05:27.408Z,27.06
2022-07-25T16:07:54.221Z,27.55
2022-07-25T16:10:20.868Z,27.71
2022-07-25T16:12:47.633Z,27.70
2022-07-25T16:15:14.361Z,28.21
2022-07-25T16:17:41.035Z,29.46
2022-07-25T16:20:09.334Z,27.99
2022-07-25T16:22:36.123Z,27.79
2022-07-25T16:25:03.229Z,28.06
2022-07-25T16:27:30.236Z,27.69
2022-07-25T16:29:57.038Z,27.82
2022-07-25T16:32:23.988Z,27.75
2022-07-25T16:34:50.628Z,27.93
2022-07-25T16:37:17.323Z,28.05
2022-07-25T16:39:43.981Z,27.96
2022-07-25T16:42:10.613Z,28.42
2022-07-25T16:44:37.233Z,28.65
2022-07-25T16:47:03.907Z,28.48
2022-07-25T16:49:30.764Z,29.76
2022-07-25T16:51:57.391Z,31.03
2022-07-25T16:54:24.019Z,32.38
2022-07-25T16:56:53.705Z,39.57
2022-07-25T16:59:22.451Z,49.46
2022-07-25T17:01:49.170Z,61.44
2022-07-25T17:04:15.885Z,71.49
2022-07-25T17:06:42.604Z,77.89
2022-07-25T17:09:09.827Z,81.17
2022-07-25T17:11:36.671Z,91.80
2022-07-25T17:14:04.461Z,97.86
2022-07-25T17:16:32.137Z,100.00
2022-07-25T17:18:58.836Z,100.00
2022-07-25T17:21:25.633Z,100.00
2022-07-25T17:23:53.292Z,100.00
2022-07-25T17:26:20.587Z,100.00
2022-07-25T17:28:48.071Z,100.00
2022-07-25T17:31:14.997Z,100.00
2022-07-25T17:33:41.773Z,100.00
2022-07-25T17:36:08.741Z,100.00
2022-07-25T17:38:37.185Z,100.00
2022-07-25T17:41:04.877Z,100.00
2022-07-25T17:43:31.577Z,100.00
2022-07-25T17:45:58.290Z,100.00
2022-07-25T17:48:24.931Z,100.00
2022-07-25T17:50:52.479Z,100.00
2022-07-25T17:53:19.190Z,100.00
2022-07-25T17:55:45.905Z,100.00
2022-07-25T17:58:12.505Z,100.00
2022-07-25T18:00:39.227Z,100.00
2022-07-25T18:03:06.583Z,100.00
2022-07-25T18:05:33.434Z,100.00
2022-07-25T18:08:00.156Z,100.00
2022-07-25T18:10:26.848Z,100.00
2022-07-25T18:12:53.459Z,100.00
2022-07-25T18:15:20.274Z,100.00
2022-07-25T18:17:47.611Z,100.00
2022-07-25T18:20:15.462Z,100.00
2022-07-25T18:22:42.207Z,100.00
2022-07-25T18:25:11.467Z,100.00
2022-07-25T18:27:44.609Z,100.00
2022-07-25T18:30:12.311Z,100.00
2022-07-25T18:32:40.386Z,100.00
2022-07-25T18:35:07.971Z,100.00
2022-07-25T18:37:38.118Z,100.00
2022-07-25T18:40:08.397Z,100.00
2022-07-25T18:42:36.216Z,100.00
2022-07-25T18:45:04.872Z,100.00
2022-07-25T18:47:34.796Z,100.00
2022-07-25T18:50:02.138Z,100.00
2022-07-25T18:52:35.038Z,100.00
2022-07-25T18:55:06.932Z,100.00
2022-07-25T18:57:33.597Z,100.00
2022-07-25T19:00:03.241Z,100.00
2022-07-25T19:02:30.537Z,100.00
2022-07-25T19:04:57.286Z,100.00
2022-07-25T19:07:24.057Z,100.00
2022-07-25T19:09:50.696Z,100.00
2022-07-25T19:12:17.551Z,100.00
2022-07-25T19:14:44.349Z,100.00
2022-07-25T19:17:11.021Z,100.00
2022-07-25T19:19:37.844Z,100.00
2022-07-25T19:22:18.603Z,100.00
2022-07-25T19:24:47.590Z,100.00
2022-07-25T19:27:30.096Z,100.00
2022-07-25T19:29:59.797Z,100.00
2022-07-25T19:32:33.385Z,100.00
2022-07-25T19:35:16.920Z,100.00
2022-07-25T19:37:56.563Z,100.00
2022-07-25T19:40:29.548Z,100.00
2022-07-25T19:42:58.843Z,100.00
2022-07-25T19:45:41.482Z,100.00
2022-07-25T19:48:11.984Z,100.00
2022-07-25T19:50:46.100Z,100.00
2022-07-25T19:53:24.276Z,100.00
2022-07-25T19:55:58.495Z,100.00
2022-07-25T19:58:26.323Z,100.00
2022-07-25T20:00:53.132Z,100.00
2022-07-25T20:03:23.415Z,100.00
2022-07-25T20:05:50.505Z,100.00
2022-07-25T20:08:17.920Z,100.00
2022-07-25T20:10:44.721Z,100.00
2022-07-25T20:13:11.366Z,100.00
2022-07-25T20:15:38.099Z,100.00
2022-07-25T20:18:04.929Z,100.00
2022-07-25T20:20:31.719Z,100.00
2022-07-25T20:22:58.431Z,100.00
2022-07-25T20:25:25.167Z,100.00
2022-07-25T20:27:51.874Z,100.00
2022-07-25T20:30:19.113Z,100.00
2022-07-25T20:32:45.785Z,100.00
2022-07-25T20:35:12.446Z,100.00
2022-07-25T20:37:39.215Z,100.00
2022-07-25T20:40:07.060Z,100.00
2022-07-25T20:42:37.487Z,100.00
2022-07-25T20:45:08.123Z,100.00
2022-07-25T20:47:34.798Z,100.00
2022-07-25T20:50:01.699Z,100.00
2022-07-25T20:52:30.214Z,100.00
2022-07-25T20:54:56.943Z,100.00
2022-07-25T20:57:23.599Z,100.00
2022-07-25T20:59:50.206Z,100.00
2022-07-25T21:02:17.489Z,100.00
2022-07-25T21:04:44.967Z,100.00
2022-07-25T21:07:14.114Z,100.00
2022-07-25T21:09:40.876Z,100.00
2022-07-25T21:12:07.995Z,100.00
2022-07-25T21:14:34.714Z,100.00
2022-07-25T21:17:01.526Z,100.00
2022-07-25T21:19:28.290Z,100.00
2022-07-25T21:21:55.018Z,100.00
2022-07-25T21:24:21.754Z,100.00
2022-07-25T21:26:48.463Z,100.00
2022-07-25T21:29:15.094Z,100.00
2022-07-25T21:31:42.426Z,100.00
2022-07-25T21:34:09.179Z,100.00
2022-07-25T21:36:38.844Z,100.00
2022-07-25T21:39:05.823Z,100.00
2022-07-25T21:41:32.669Z,100.00
2022-07-25T21:43:59.305Z,100.00
2022-07-25T21:46:26.360Z,100.00
2022-07-25T21:49:14.488Z,100.00
2022-07-25T21:51:41.333Z,100.00
2022-07-25T21:54:09.699Z,100.00
2022-07-25T21:56:36.439Z,100.00
2022-07-25T21:59:03.826Z,100.00
2022-07-25T22:01:30.660Z,100.00
2022-07-25T22:03:57.494Z,100.00
2022-07-25T22:06:24.373Z,100.00
2022-07-25T22:08:51.258Z,100.00
2022-07-25T22:11:39.107Z,100.00
2022-07-25T22:14:05.077Z,100.00
2022-07-25T22:16:31.792Z,100.00
2022-07-25T22:18:59.753Z,100.00
2022-07-25T22:21:26.562Z,100.00
2022-07-25T22:23:53.408Z,100.00
2022-07-25T22:26:20.383Z,100.00
2022-07-25T22:28:47.709Z,100.00
2022-07-25T22:31:15.128Z,100.00
2022-07-25T22:33:41.932Z,100.00
2022-07-25T22:36:10.269Z,100.00
2022-07-25T22:38:36.935Z,100.00
2022-07-25T22:41:03.640Z,100.00
2022-07-25T22:43:58.032Z,100.00
2022-07-25T22:46:17.670Z,100.00
2022-07-25T22:48:44.630Z,100.00
2022-07-25T22:51:11.937Z,100.00
2022-07-25T22:53:38.577Z,100.00
2022-07-25T22:56:05.763Z,100.00
2022-07-25T22:58:32.507Z,100.00
2022-07-25T23:00:59.158Z,100.00
2022-07-25T23:03:26.059Z,100.00
2022-07-25T23:05:58.294Z,100.00
2022-07-25T23:08:25.191Z,100.00
2022-07-25T23:10:51.998Z,100.00
2022-07-25T23:13:18.920Z,100.00
2022-07-25T23:15:50.029Z,100.00
2022-07-25T23:18:18.442Z,100.00
2022-07-25T23:20:45.208Z,100.00
2022-07-25T23:23:11.830Z,100.00
2022-07-25T23:25:38.448Z,100.00
2022-07-25T23:28:05.270Z,100.00
2022-07-25T23:30:36.566Z,100.00
2022-07-25T23:33:07.000Z,100.00
2022-07-25T23:35:33.800Z,100.00
2022-07-25T23:38:00.844Z,100.00
2022-07-25T23:40:27.576Z,100.00
2022-07-25T23:42:54.515Z,100.00
2022-07-25T23:45:22.125Z,100.00
2022-07-25T23:47:52.417Z,100.00
2022-07-25T23:50:19.874Z,100.00
2022-07-25T23:52:46.835Z,100.00
2022-07-25T23:55:13.986Z,100.00
2022-07-25T23:57:40.764Z,100.00
